sensor_id;sensor_type;location;lat;lon;timestamp;P1;durP1;ratioP1;P2;durP2;ratioP2
8036;SDS011;4061;51.360;7.340;2022-10-16T00:01:45;1.65;;;1.30;;
8036;SDS011;4061;51.360;7.340;2022-10-16T00:04:12;6.47;;;1.35;;
8036;SDS011;4061;51.360;7.340;2022-10-16T00:06:39;1.52;;;0.82;;
8036;SDS011;4061;51.360;7.340;2022-10-16T00:09:07;1.48;;;1.20;;
8036;SDS011;4061;51.360;7.340;2022-10-16T00:11:36;5.18;;;1.38;;
8036;SDS011;4061;51.360;7.340;2022-10-16T00:14:05;3.00;;;1.08;;
8036;SDS011;4061;51.360;7.340;2022-10-16T00:16:33;1.42;;;1.33;;
8036;SDS011;4061;51.360;7.340;2022-10-16T00:19:00;4.80;;;1.38;;
8036;SDS011;4061;51.360;7.340;2022-10-16T00:21:28;2.17;;;1.10;;
8036;SDS011;4061;51.360;7.340;2022-10-16T00:23:56;2.60;;;1.17;;
8036;SDS011;4061;51.360;7.340;2022-10-16T00:26:24;1.83;;;1.13;;
8036;SDS011;4061;51.360;7.340;2022-10-16T00:28:53;1.73;;;1.10;;
8036;SDS011;4061;51.360;7.340;2022-10-16T00:31:21;4.18;;;0.90;;
8036;SDS011;4061;51.360;7.340;2022-10-16T00:33:48;4.00;;;1.40;;
8036;SDS011;4061;51.360;7.340;2022-10-16T00:36:16;1.08;;;1.08;;
8036;SDS011;4061;51.360;7.340;2022-10-16T00:38:44;0.63;;;0.63;;
8036;SDS011;4061;51.360;7.340;2022-10-16T00:41:12;1.58;;;1.08;;
8036;SDS011;4061;51.360;7.340;2022-10-16T00:43:40;3.15;;;0.98;;
8036;SDS011;4061;51.360;7.340;2022-10-16T00:46:14;1.15;;;1.05;;
8036;SDS011;4061;51.360;7.340;2022-10-16T00:48:42;2.80;;;1.02;;
8036;SDS011;4061;51.360;7.340;2022-10-16T00:51:09;1.35;;;1.25;;
8036;SDS011;4061;51.360;7.340;2022-10-16T00:53:37;1.60;;;1.13;;
8036;SDS011;4061;51.360;7.340;2022-10-16T00:56:04;2.17;;;1.10;;
8036;SDS011;4061;51.360;7.340;2022-10-16T00:58:31;3.58;;;0.90;;
8036;SDS011;4061;51.360;7.340;2022-10-16T01:00:58;6.63;;;1.25;;
8036;SDS011;4061;51.360;7.340;2022-10-16T01:03:28;1.00;;;0.93;;
8036;SDS011;4061;51.360;7.340;2022-10-16T01:05:59;1.23;;;1.10;;
8036;SDS011;4061;51.360;7.340;2022-10-16T01:08:34;0.98;;;0.98;;
8036;SDS011;4061;51.360;7.340;2022-10-16T01:11:06;2.33;;;0.98;;
8036;SDS011;4061;51.360;7.340;2022-10-16T01:13:38;1.20;;;0.98;;
8036;SDS011;4061;51.360;7.340;2022-10-16T01:16:07;1.83;;;0.85;;
8036;SDS011;4061;51.360;7.340;2022-10-16T01:18:42;1.52;;;0.85;;
8036;SDS011;4061;51.360;7.340;2022-10-16T01:21:10;4.10;;;1.20;;
8036;SDS011;4061;51.360;7.340;2022-10-16T01:23:43;1.30;;;1.20;;
8036;SDS011;4061;51.360;7.340;2022-10-16T01:26:19;2.28;;;1.00;;
8036;SDS011;4061;51.360;7.340;2022-10-16T01:28:50;2.65;;;1.17;;
8036;SDS011;4061;51.360;7.340;2022-10-16T01:31:18;4.05;;;1.00;;
8036;SDS011;4061;51.360;7.340;2022-10-16T01:33:47;2.60;;;1.23;;
8036;SDS011;4061;51.360;7.340;2022-10-16T01:36:19;1.80;;;1.30;;
8036;SDS011;4061;51.360;7.340;2022-10-16T01:38:48;2.92;;;1.13;;
8036;SDS011;4061;51.360;7.340;2022-10-16T01:41:17;0.90;;;0.90;;
8036;SDS011;4061;51.360;7.340;2022-10-16T01:43:46;2.10;;;1.33;;
8036;SDS011;4061;51.360;7.340;2022-10-16T01:46:16;1.67;;;1.33;;
8036;SDS011;4061;51.360;7.340;2022-10-16T01:48:45;3.83;;;1.40;;
8036;SDS011;4061;51.360;7.340;2022-10-16T01:51:12;3.00;;;1.05;;
8036;SDS011;4061;51.360;7.340;2022-10-16T01:53:40;2.28;;;1.27;;
8036;SDS011;4061;51.360;7.340;2022-10-16T01:56:09;0.90;;;0.73;;
8036;SDS011;4061;51.360;7.340;2022-10-16T01:58:37;2.60;;;1.08;;
8036;SDS011;4061;51.360;7.340;2022-10-16T02:01:06;0.90;;;0.90;;
8036;SDS011;4061;51.360;7.340;2022-10-16T02:03:36;0.98;;;0.98;;
8036;SDS011;4061;51.360;7.340;2022-10-16T02:06:03;4.13;;;0.90;;
8036;SDS011;4061;51.360;7.340;2022-10-16T02:08:31;2.45;;;1.40;;
8036;SDS011;4061;51.360;7.340;2022-10-16T02:10:59;7.25;;;1.40;;
8036;SDS011;4061;51.360;7.340;2022-10-16T02:13:27;8.07;;;0.90;;
8036;SDS011;4061;51.360;7.340;2022-10-16T02:15:56;7.30;;;1.00;;
8036;SDS011;4061;51.360;7.340;2022-10-16T02:18:23;1.00;;;0.95;;
8036;SDS011;4061;51.360;7.340;2022-10-16T02:20:56;2.20;;;1.00;;
8036;SDS011;4061;51.360;7.340;2022-10-16T02:23:24;0.80;;;0.80;;
8036;SDS011;4061;51.360;7.340;2022-10-16T02:25:55;1.23;;;1.20;;
8036;SDS011;4061;51.360;7.340;2022-10-16T02:28:24;2.20;;;1.30;;
8036;SDS011;4061;51.360;7.340;2022-10-16T02:30:52;1.52;;;1.38;;
8036;SDS011;4061;51.360;7.340;2022-10-16T02:33:22;1.38;;;1.00;;
8036;SDS011;4061;51.360;7.340;2022-10-16T02:35:50;1.20;;;1.10;;
8036;SDS011;4061;51.360;7.340;2022-10-16T02:38:19;7.05;;;1.20;;
8036;SDS011;4061;51.360;7.340;2022-10-16T02:40:47;0.93;;;0.93;;
8036;SDS011;4061;51.360;7.340;2022-10-16T02:43:14;1.52;;;1.30;;
8036;SDS011;4061;51.360;7.340;2022-10-16T02:45:42;1.23;;;0.88;;
8036;SDS011;4061;51.360;7.340;2022-10-16T02:48:09;0.88;;;0.80;;
8036;SDS011;4061;51.360;7.340;2022-10-16T02:50:36;1.08;;;0.90;;
8036;SDS011;4061;51.360;7.340;2022-10-16T02:53:03;1.25;;;0.85;;
8036;SDS011;4061;51.360;7.340;2022-10-16T02:55:32;0.80;;;0.80;;
8036;SDS011;4061;51.360;7.340;2022-10-16T02:57:59;2.38;;;0.93;;
8036;SDS011;4061;51.360;7.340;2022-10-16T03:00:26;1.45;;;1.10;;
8036;SDS011;4061;51.360;7.340;2022-10-16T03:02:53;2.83;;;1.13;;
8036;SDS011;4061;51.360;7.340;2022-10-16T03:05:20;1.00;;;1.00;;
8036;SDS011;4061;51.360;7.340;2022-10-16T03:07:48;0.90;;;0.90;;
8036;SDS011;4061;51.360;7.340;2022-10-16T03:10:15;3.22;;;0.90;;
8036;SDS011;4061;51.360;7.340;2022-10-16T03:12:43;4.40;;;1.02;;
8036;SDS011;4061;51.360;7.340;2022-10-16T03:15:10;3.55;;;1.13;;
8036;SDS011;4061;51.360;7.340;2022-10-16T03:17:38;3.50;;;1.00;;
8036;SDS011;4061;51.360;7.340;2022-10-16T03:20:05;1.00;;;1.00;;
8036;SDS011;4061;51.360;7.340;2022-10-16T03:22:32;1.20;;;1.20;;
8036;SDS011;4061;51.360;7.340;2022-10-16T03:25:00;3.05;;;0.90;;
8036;SDS011;4061;51.360;7.340;2022-10-16T03:27:27;0.90;;;0.90;;
8036;SDS011;4061;51.360;7.340;2022-10-16T03:29:55;3.53;;;0.90;;
8036;SDS011;4061;51.360;7.340;2022-10-16T03:32:22;5.50;;;1.02;;
8036;SDS011;4061;51.360;7.340;2022-10-16T03:34:50;1.38;;;0.77;;
8036;SDS011;4061;51.360;7.340;2022-10-16T03:37:19;0.60;;;0.60;;
8036;SDS011;4061;51.360;7.340;2022-10-16T03:39:46;2.67;;;0.88;;
8036;SDS011;4061;51.360;7.340;2022-10-16T03:42:13;6.25;;;1.08;;
8036;SDS011;4061;51.360;7.340;2022-10-16T03:44:40;0.80;;;0.80;;
8036;SDS011;4061;51.360;7.340;2022-10-16T03:47:09;3.05;;;0.80;;
8036;SDS011;4061;51.360;7.340;2022-10-16T03:49:36;1.40;;;0.80;;
8036;SDS011;4061;51.360;7.340;2022-10-16T03:52:03;0.50;;;0.50;;
8036;SDS011;4061;51.360;7.340;2022-10-16T03:54:30;0.80;;;0.80;;
8036;SDS011;4061;51.360;7.340;2022-10-16T03:56:57;1.98;;;0.50;;
8036;SDS011;4061;51.360;7.340;2022-10-16T03:59:24;0.88;;;0.85;;
8036;SDS011;4061;51.360;7.340;2022-10-16T04:01:51;0.80;;;0.80;;
8036;SDS011;4061;51.360;7.340;2022-10-16T04:04:20;1.65;;;1.08;;
8036;SDS011;4061;51.360;7.340;2022-10-16T04:06:47;1.30;;;0.60;;
8036;SDS011;4061;51.360;7.340;2022-10-16T04:09:14;1.23;;;0.63;;
8036;SDS011;4061;51.360;7.340;2022-10-16T04:11:41;0.77;;;0.77;;
8036;SDS011;4061;51.360;7.340;2022-10-16T04:14:09;0.50;;;0.50;;
8036;SDS011;4061;51.360;7.340;2022-10-16T04:16:36;2.50;;;0.43;;
8036;SDS011;4061;51.360;7.340;2022-10-16T04:19:03;0.75;;;0.70;;
8036;SDS011;4061;51.360;7.340;2022-10-16T04:21:32;0.85;;;0.60;;
8036;SDS011;4061;51.360;7.340;2022-10-16T04:23:59;0.63;;;0.63;;
8036;SDS011;4061;51.360;7.340;2022-10-16T04:26:26;0.73;;;0.60;;
8036;SDS011;4061;51.360;7.340;2022-10-16T04:28:53;1.02;;;0.65;;
8036;SDS011;4061;51.360;7.340;2022-10-16T04:31:20;3.50;;;0.55;;
8036;SDS011;4061;51.360;7.340;2022-10-16T04:33:48;0.70;;;0.70;;
8036;SDS011;4061;51.360;7.340;2022-10-16T04:36:15;0.50;;;0.50;;
8036;SDS011;4061;51.360;7.340;2022-10-16T04:38:43;0.40;;;0.40;;
8036;SDS011;4061;51.360;7.340;2022-10-16T04:41:10;0.57;;;0.57;;
8036;SDS011;4061;51.360;7.340;2022-10-16T04:43:38;7.80;;;0.57;;
8036;SDS011;4061;51.360;7.340;2022-10-16T04:46:05;0.45;;;0.45;;
8036;SDS011;4061;51.360;7.340;2022-10-16T04:48:32;1.23;;;0.70;;
8036;SDS011;4061;51.360;7.340;2022-10-16T04:50:59;1.48;;;0.75;;
8036;SDS011;4061;51.360;7.340;2022-10-16T04:53:26;1.80;;;0.40;;
8036;SDS011;4061;51.360;7.340;2022-10-16T04:55:55;0.50;;;0.50;;
8036;SDS011;4061;51.360;7.340;2022-10-16T04:58:22;0.73;;;0.73;;
8036;SDS011;4061;51.360;7.340;2022-10-16T05:00:49;4.90;;;0.50;;
8036;SDS011;4061;51.360;7.340;2022-10-16T05:03:16;1.70;;;0.80;;
8036;SDS011;4061;51.360;7.340;2022-10-16T05:05:44;2.38;;;0.47;;
8036;SDS011;4061;51.360;7.340;2022-10-16T05:08:11;0.45;;;0.45;;
8036;SDS011;4061;51.360;7.340;2022-10-16T05:10:39;1.45;;;0.73;;
8036;SDS011;4061;51.360;7.340;2022-10-16T05:13:08;0.60;;;0.60;;
8036;SDS011;4061;51.360;7.340;2022-10-16T05:15:36;0.63;;;0.63;;
8036;SDS011;4061;51.360;7.340;2022-10-16T05:18:03;0.55;;;0.55;;
8036;SDS011;4061;51.360;7.340;2022-10-16T05:20:30;0.60;;;0.60;;
8036;SDS011;4061;51.360;7.340;2022-10-16T05:22:57;0.80;;;0.80;;
8036;SDS011;4061;51.360;7.340;2022-10-16T05:25:24;2.05;;;0.60;;
8036;SDS011;4061;51.360;7.340;2022-10-16T05:27:52;0.50;;;0.50;;
8036;SDS011;4061;51.360;7.340;2022-10-16T05:30:20;0.50;;;0.50;;
8036;SDS011;4061;51.360;7.340;2022-10-16T05:32:47;0.70;;;0.70;;
8036;SDS011;4061;51.360;7.340;2022-10-16T05:35:15;0.70;;;0.70;;
8036;SDS011;4061;51.360;7.340;2022-10-16T05:37:42;0.70;;;0.70;;
8036;SDS011;4061;51.360;7.340;2022-10-16T05:40:10;5.90;;;0.70;;
8036;SDS011;4061;51.360;7.340;2022-10-16T05:42:37;0.60;;;0.57;;
8036;SDS011;4061;51.360;7.340;2022-10-16T05:45:05;0.65;;;0.65;;
8036;SDS011;4061;51.360;7.340;2022-10-16T05:47:34;0.70;;;0.70;;
8036;SDS011;4061;51.360;7.340;2022-10-16T05:50:01;0.60;;;0.60;;
8036;SDS011;4061;51.360;7.340;2022-10-16T05:52:29;0.88;;;0.88;;
8036;SDS011;4061;51.360;7.340;2022-10-16T05:54:56;0.60;;;0.60;;
8036;SDS011;4061;51.360;7.340;2022-10-16T05:57:23;0.90;;;0.77;;
8036;SDS011;4061;51.360;7.340;2022-10-16T05:59:50;1.00;;;0.63;;
8036;SDS011;4061;51.360;7.340;2022-10-16T06:02:17;4.88;;;0.85;;
8036;SDS011;4061;51.360;7.340;2022-10-16T06:04:46;0.85;;;0.80;;
8036;SDS011;4061;51.360;7.340;2022-10-16T06:07:13;0.75;;;0.75;;
8036;SDS011;4061;51.360;7.340;2022-10-16T06:09:40;0.73;;;0.73;;
8036;SDS011;4061;51.360;7.340;2022-10-16T06:12:07;1.15;;;0.70;;
8036;SDS011;4061;51.360;7.340;2022-10-16T06:14:34;0.80;;;0.68;;
8036;SDS011;4061;51.360;7.340;2022-10-16T06:17:01;1.05;;;1.05;;
8036;SDS011;4061;51.360;7.340;2022-10-16T06:19:29;0.63;;;0.63;;
8036;SDS011;4061;51.360;7.340;2022-10-16T06:21:57;0.77;;;0.77;;
8036;SDS011;4061;51.360;7.340;2022-10-16T06:24:25;0.70;;;0.70;;
8036;SDS011;4061;51.360;7.340;2022-10-16T06:26:52;0.55;;;0.50;;
8036;SDS011;4061;51.360;7.340;2022-10-16T06:29:19;1.77;;;0.90;;
8036;SDS011;4061;51.360;7.340;2022-10-16T06:31:46;1.27;;;0.88;;
8036;SDS011;4061;51.360;7.340;2022-10-16T06:34:13;0.80;;;0.80;;
8036;SDS011;4061;51.360;7.340;2022-10-16T06:36:41;0.88;;;0.88;;
8036;SDS011;4061;51.360;7.340;2022-10-16T06:39:09;1.05;;;1.00;;
8036;SDS011;4061;51.360;7.340;2022-10-16T06:41:37;0.82;;;0.82;;
8036;SDS011;4061;51.360;7.340;2022-10-16T06:44:05;4.28;;;0.70;;
8036;SDS011;4061;51.360;7.340;2022-10-16T06:46:32;1.50;;;0.80;;
8036;SDS011;4061;51.360;7.340;2022-10-16T06:48:59;0.80;;;0.80;;
8036;SDS011;4061;51.360;7.340;2022-10-16T06:51:27;0.75;;;0.75;;
8036;SDS011;4061;51.360;7.340;2022-10-16T06:53:54;1.20;;;0.80;;
8036;SDS011;4061;51.360;7.340;2022-10-16T06:56:24;2.03;;;0.95;;
8036;SDS011;4061;51.360;7.340;2022-10-16T06:58:52;0.65;;;0.65;;
8036;SDS011;4061;51.360;7.340;2022-10-16T07:01:20;0.85;;;0.85;;
8036;SDS011;4061;51.360;7.340;2022-10-16T07:03:47;0.85;;;0.85;;
8036;SDS011;4061;51.360;7.340;2022-10-16T07:06:15;4.53;;;1.00;;
8036;SDS011;4061;51.360;7.340;2022-10-16T07:08:43;2.25;;;0.80;;
8036;SDS011;4061;51.360;7.340;2022-10-16T07:11:11;0.88;;;0.88;;
8036;SDS011;4061;51.360;7.340;2022-10-16T07:13:40;11.40;;;1.15;;
8036;SDS011;4061;51.360;7.340;2022-10-16T07:16:09;0.85;;;0.85;;
8036;SDS011;4061;51.360;7.340;2022-10-16T07:18:37;0.90;;;0.90;;
8036;SDS011;4061;51.360;7.340;2022-10-16T07:21:05;1.27;;;0.90;;
8036;SDS011;4061;51.360;7.340;2022-10-16T07:23:32;1.75;;;0.80;;
8036;SDS011;4061;51.360;7.340;2022-10-16T07:26:00;1.08;;;0.77;;
8036;SDS011;4061;51.360;7.340;2022-10-16T07:28:27;0.98;;;0.60;;
8036;SDS011;4061;51.360;7.340;2022-10-16T07:30:55;1.73;;;0.88;;
8036;SDS011;4061;51.360;7.340;2022-10-16T07:33:26;4.28;;;0.77;;
8036;SDS011;4061;51.360;7.340;2022-10-16T07:35:54;2.22;;;0.90;;
8036;SDS011;4061;51.360;7.340;2022-10-16T07:38:21;2.33;;;2.10;;
8036;SDS011;4061;51.360;7.340;2022-10-16T07:40:55;0.65;;;0.65;;
8036;SDS011;4061;51.360;7.340;2022-10-16T07:43:23;2.47;;;1.00;;
8036;SDS011;4061;51.360;7.340;2022-10-16T07:45:50;2.05;;;0.80;;
8036;SDS011;4061;51.360;7.340;2022-10-16T07:48:19;1.75;;;0.95;;
8036;SDS011;4061;51.360;7.340;2022-10-16T07:50:46;4.53;;;0.80;;
8036;SDS011;4061;51.360;7.340;2022-10-16T07:53:13;0.82;;;0.82;;
8036;SDS011;4061;51.360;7.340;2022-10-16T07:55:41;0.90;;;0.90;;
8036;SDS011;4061;51.360;7.340;2022-10-16T07:58:08;0.50;;;0.50;;
8036;SDS011;4061;51.360;7.340;2022-10-16T08:00:36;2.38;;;0.75;;
8036;SDS011;4061;51.360;7.340;2022-10-16T08:03:03;0.70;;;0.70;;
8036;SDS011;4061;51.360;7.340;2022-10-16T08:05:32;0.73;;;0.73;;
8036;SDS011;4061;51.360;7.340;2022-10-16T08:08:00;2.65;;;1.02;;
8036;SDS011;4061;51.360;7.340;2022-10-16T08:10:27;1.15;;;0.90;;
8036;SDS011;4061;51.360;7.340;2022-10-16T08:12:55;3.80;;;0.88;;
8036;SDS011;4061;51.360;7.340;2022-10-16T08:15:22;1.95;;;0.70;;
8036;SDS011;4061;51.360;7.340;2022-10-16T08:17:58;4.50;;;0.95;;
8036;SDS011;4061;51.360;7.340;2022-10-16T08:20:26;5.50;;;0.90;;
8036;SDS011;4061;51.360;7.340;2022-10-16T08:22:55;1.20;;;0.65;;
8036;SDS011;4061;51.360;7.340;2022-10-16T08:25:22;3.70;;;1.83;;
8036;SDS011;4061;51.360;7.340;2022-10-16T08:27:50;1.23;;;0.73;;
8036;SDS011;4061;51.360;7.340;2022-10-16T08:30:17;0.88;;;0.88;;
8036;SDS011;4061;51.360;7.340;2022-10-16T08:32:45;0.98;;;0.98;;
8036;SDS011;4061;51.360;7.340;2022-10-16T08:35:12;0.60;;;0.60;;
8036;SDS011;4061;51.360;7.340;2022-10-16T08:37:40;1.05;;;0.68;;
8036;SDS011;4061;51.360;7.340;2022-10-16T08:40:12;1.10;;;0.98;;
8036;SDS011;4061;51.360;7.340;2022-10-16T08:42:45;2.97;;;0.75;;
8036;SDS011;4061;51.360;7.340;2022-10-16T08:45:29;0.68;;;0.57;;
8036;SDS011;4061;51.360;7.340;2022-10-16T08:48:00;2.65;;;0.65;;
8036;SDS011;4061;51.360;7.340;2022-10-16T08:50:32;0.60;;;0.50;;
8036;SDS011;4061;51.360;7.340;2022-10-16T08:53:03;2.35;;;0.93;;
8036;SDS011;4061;51.360;7.340;2022-10-16T08:55:34;2.58;;;0.70;;
8036;SDS011;4061;51.360;7.340;2022-10-16T08:58:08;1.05;;;0.45;;
8036;SDS011;4061;51.360;7.340;2022-10-16T09:00:37;1.65;;;0.60;;
8036;SDS011;4061;51.360;7.340;2022-10-16T09:03:06;2.65;;;0.63;;
8036;SDS011;4061;51.360;7.340;2022-10-16T09:05:43;3.40;;;0.60;;
8036;SDS011;4061;51.360;7.340;2022-10-16T09:08:14;3.85;;;0.57;;
8036;SDS011;4061;51.360;7.340;2022-10-16T09:10:49;2.78;;;0.80;;
8036;SDS011;4061;51.360;7.340;2022-10-16T09:13:21;1.42;;;0.47;;
8036;SDS011;4061;51.360;7.340;2022-10-16T09:15:52;0.98;;;0.50;;
8036;SDS011;4061;51.360;7.340;2022-10-16T09:18:23;4.13;;;0.70;;
8036;SDS011;4061;51.360;7.340;2022-10-16T09:20:55;5.45;;;1.15;;
8036;SDS011;4061;51.360;7.340;2022-10-16T09:23:25;2.95;;;0.60;;
8036;SDS011;4061;51.360;7.340;2022-10-16T09:25:54;2.85;;;0.35;;
8036;SDS011;4061;51.360;7.340;2022-10-16T09:28:22;0.30;;;0.30;;
8036;SDS011;4061;51.360;7.340;2022-10-16T09:30:49;5.40;;;0.80;;
8036;SDS011;4061;51.360;7.340;2022-10-16T09:33:17;1.83;;;0.47;;
8036;SDS011;4061;51.360;7.340;2022-10-16T09:35:45;0.38;;;0.38;;
8036;SDS011;4061;51.360;7.340;2022-10-16T09:38:23;3.33;;;0.30;;
8036;SDS011;4061;51.360;7.340;2022-10-16T09:40:50;5.10;;;0.50;;
8036;SDS011;4061;51.360;7.340;2022-10-16T09:43:23;0.40;;;0.40;;
8036;SDS011;4061;51.360;7.340;2022-10-16T09:45:53;0.65;;;0.35;;
8036;SDS011;4061;51.360;7.340;2022-10-16T09:48:21;0.43;;;0.40;;
8036;SDS011;4061;51.360;7.340;2022-10-16T09:50:55;0.65;;;0.40;;
8036;SDS011;4061;51.360;7.340;2022-10-16T09:53:22;0.52;;;0.40;;
8036;SDS011;4061;51.360;7.340;2022-10-16T09:55:52;1.80;;;0.47;;
8036;SDS011;4061;51.360;7.340;2022-10-16T09:58:21;2.10;;;0.40;;
8036;SDS011;4061;51.360;7.340;2022-10-16T10:00:50;0.45;;;0.40;;
8036;SDS011;4061;51.360;7.340;2022-10-16T10:03:30;3.30;;;0.40;;
8036;SDS011;4061;51.360;7.340;2022-10-16T10:06:00;3.10;;;0.47;;
8036;SDS011;4061;51.360;7.340;2022-10-16T10:08:27;1.80;;;0.38;;
8036;SDS011;4061;51.360;7.340;2022-10-16T10:10:55;0.30;;;0.30;;
8036;SDS011;4061;51.360;7.340;2022-10-16T10:13:22;1.13;;;0.20;;
8036;SDS011;4061;51.360;7.340;2022-10-16T10:15:53;2.38;;;0.47;;
8036;SDS011;4061;51.360;7.340;2022-10-16T10:18:21;0.35;;;0.35;;
8036;SDS011;4061;51.360;7.340;2022-10-16T10:20:57;1.92;;;0.30;;
8036;SDS011;4061;51.360;7.340;2022-10-16T10:23:26;0.52;;;0.30;;
8036;SDS011;4061;51.360;7.340;2022-10-16T10:25:53;2.20;;;0.43;;
8036;SDS011;4061;51.360;7.340;2022-10-16T10:28:29;1.55;;;0.47;;
8036;SDS011;4061;51.360;7.340;2022-10-16T10:31:05;1.48;;;0.32;;
8036;SDS011;4061;51.360;7.340;2022-10-16T10:33:38;0.98;;;0.40;;
8036;SDS011;4061;51.360;7.340;2022-10-16T10:36:12;4.65;;;0.65;;
8036;SDS011;4061;51.360;7.340;2022-10-16T10:38:43;2.22;;;0.50;;
8036;SDS011;4061;51.360;7.340;2022-10-16T10:41:18;1.33;;;0.35;;
8036;SDS011;4061;51.360;7.340;2022-10-16T10:43:50;2.22;;;0.50;;
8036;SDS011;4061;51.360;7.340;2022-10-16T10:46:25;1.50;;;0.57;;
8036;SDS011;4061;51.360;7.340;2022-10-16T10:48:58;0.82;;;0.45;;
8036;SDS011;4061;51.360;7.340;2022-10-16T10:51:28;0.85;;;0.57;;
8036;SDS011;4061;51.360;7.340;2022-10-16T10:54:02;3.20;;;0.60;;
8036;SDS011;4061;51.360;7.340;2022-10-16T10:56:40;2.58;;;0.60;;
8036;SDS011;4061;51.360;7.340;2022-10-16T10:59:14;0.40;;;0.40;;
8036;SDS011;4061;51.360;7.340;2022-10-16T11:01:48;0.95;;;0.40;;
8036;SDS011;4061;51.360;7.340;2022-10-16T11:04:25;0.30;;;0.30;;
8036;SDS011;4061;51.360;7.340;2022-10-16T11:06:57;1.45;;;0.30;;
8036;SDS011;4061;51.360;7.340;2022-10-16T11:09:25;1.92;;;0.50;;
8036;SDS011;4061;51.360;7.340;2022-10-16T11:11:54;2.17;;;0.25;;
8036;SDS011;4061;51.360;7.340;2022-10-16T11:14:25;1.45;;;0.40;;
8036;SDS011;4061;51.360;7.340;2022-10-16T11:16:56;0.40;;;0.40;;
8036;SDS011;4061;51.360;7.340;2022-10-16T11:19:28;2.60;;;0.40;;
8036;SDS011;4061;51.360;7.340;2022-10-16T11:22:00;0.43;;;0.40;;
8036;SDS011;4061;51.360;7.340;2022-10-16T11:24:33;1.58;;;0.25;;
8036;SDS011;4061;51.360;7.340;2022-10-16T11:27:03;1.13;;;0.30;;
8036;SDS011;4061;51.360;7.340;2022-10-16T11:29:31;0.95;;;0.20;;
8036;SDS011;4061;51.360;7.340;2022-10-16T11:32:01;2.33;;;0.65;;
8036;SDS011;4061;51.360;7.340;2022-10-16T11:34:33;0.30;;;0.30;;
8036;SDS011;4061;51.360;7.340;2022-10-16T11:37:03;0.82;;;0.47;;
8036;SDS011;4061;51.360;7.340;2022-10-16T11:39:32;4.40;;;0.50;;
8036;SDS011;4061;51.360;7.340;2022-10-16T11:42:01;2.53;;;0.30;;
8036;SDS011;4061;51.360;7.340;2022-10-16T11:44:38;1.13;;;0.30;;
8036;SDS011;4061;51.360;7.340;2022-10-16T11:47:11;2.95;;;0.40;;
8036;SDS011;4061;51.360;7.340;2022-10-16T11:49:39;1.70;;;0.28;;
8036;SDS011;4061;51.360;7.340;2022-10-16T11:52:07;1.25;;;0.22;;
8036;SDS011;4061;51.360;7.340;2022-10-16T11:54:39;1.33;;;0.22;;
8036;SDS011;4061;51.360;7.340;2022-10-16T11:57:12;0.70;;;0.65;;
8036;SDS011;4061;51.360;7.340;2022-10-16T11:59:42;0.32;;;0.28;;
8036;SDS011;4061;51.360;7.340;2022-10-16T12:02:20;0.80;;;0.40;;
8036;SDS011;4061;51.360;7.340;2022-10-16T12:04:53;2.88;;;0.20;;
8036;SDS011;4061;51.360;7.340;2022-10-16T12:07:27;0.28;;;0.28;;
8036;SDS011;4061;51.360;7.340;2022-10-16T12:09:56;0.55;;;0.20;;
8036;SDS011;4061;51.360;7.340;2022-10-16T12:12:26;5.78;;;0.20;;
8036;SDS011;4061;51.360;7.340;2022-10-16T12:15:00;0.30;;;0.20;;
8036;SDS011;4061;51.360;7.340;2022-10-16T12:17:34;1.35;;;0.25;;
8036;SDS011;4061;51.360;7.340;2022-10-16T12:20:17;2.33;;;0.40;;
8036;SDS011;4061;51.360;7.340;2022-10-16T12:22:47;1.30;;;0.15;;
8036;SDS011;4061;51.360;7.340;2022-10-16T12:25:19;0.77;;;0.65;;
8036;SDS011;4061;51.360;7.340;2022-10-16T12:27:53;2.17;;;0.20;;
8036;SDS011;4061;51.360;7.340;2022-10-16T12:30:22;4.18;;;0.20;;
8036;SDS011;4061;51.360;7.340;2022-10-16T12:32:54;4.13;;;0.50;;
8036;SDS011;4061;51.360;7.340;2022-10-16T12:35:22;0.10;;;0.10;;
8036;SDS011;4061;51.360;7.340;2022-10-16T12:37:50;1.02;;;0.20;;
8036;SDS011;4061;51.360;7.340;2022-10-16T12:40:26;0.20;;;0.20;;
8036;SDS011;4061;51.360;7.340;2022-10-16T12:42:53;2.10;;;0.10;;
8036;SDS011;4061;51.360;7.340;2022-10-16T12:45:24;0.17;;;0.17;;
8036;SDS011;4061;51.360;7.340;2022-10-16T12:47:54;0.10;;;0.10;;
8036;SDS011;4061;51.360;7.340;2022-10-16T12:50:25;3.13;;;0.30;;
8036;SDS011;4061;51.360;7.340;2022-10-16T12:52:53;1.50;;;0.22;;
8036;SDS011;4061;51.360;7.340;2022-10-16T12:55:21;4.15;;;0.40;;
8036;SDS011;4061;51.360;7.340;2022-10-16T12:57:57;0.13;;;0.13;;
8036;SDS011;4061;51.360;7.340;2022-10-16T13:00:29;2.40;;;0.38;;
8036;SDS011;4061;51.360;7.340;2022-10-16T13:03:04;4.40;;;0.32;;
8036;SDS011;4061;51.360;7.340;2022-10-16T13:05:42;0.20;;;0.20;;
8036;SDS011;4061;51.360;7.340;2022-10-16T13:08:18;1.55;;;0.20;;
8036;SDS011;4061;51.360;7.340;2022-10-16T13:10:53;0.30;;;0.10;;
8036;SDS011;4061;51.360;7.340;2022-10-16T13:13:34;2.47;;;0.30;;
8036;SDS011;4061;51.360;7.340;2022-10-16T13:16:08;0.55;;;0.43;;
8036;SDS011;4061;51.360;7.340;2022-10-16T13:18:40;1.80;;;0.30;;
8036;SDS011;4061;51.360;7.340;2022-10-16T13:21:14;1.50;;;0.25;;
8036;SDS011;4061;51.360;7.340;2022-10-16T13:23:47;0.60;;;0.30;;
8036;SDS011;4061;51.360;7.340;2022-10-16T13:26:19;0.32;;;0.32;;
8036;SDS011;4061;51.360;7.340;2022-10-16T13:28:47;4.28;;;0.50;;
8036;SDS011;4061;51.360;7.340;2022-10-16T13:31:15;0.10;;;0.10;;
8036;SDS011;4061;51.360;7.340;2022-10-16T13:33:47;0.40;;;0.20;;
8036;SDS011;4061;51.360;7.340;2022-10-16T13:36:19;0.73;;;0.43;;
8036;SDS011;4061;51.360;7.340;2022-10-16T13:38:46;5.45;;;0.40;;
8036;SDS011;4061;51.360;7.340;2022-10-16T13:41:16;0.90;;;0.20;;
8036;SDS011;4061;51.360;7.340;2022-10-16T13:43:45;0.20;;;0.20;;
8036;SDS011;4061;51.360;7.340;2022-10-16T13:46:14;1.08;;;0.30;;
8036;SDS011;4061;51.360;7.340;2022-10-16T13:48:41;0.90;;;0.45;;
8036;SDS011;4061;51.360;7.340;2022-10-16T13:51:13;0.30;;;0.30;;
8036;SDS011;4061;51.360;7.340;2022-10-16T13:53:40;2.67;;;0.40;;
8036;SDS011;4061;51.360;7.340;2022-10-16T13:56:09;0.32;;;0.30;;
8036;SDS011;4061;51.360;7.340;2022-10-16T13:58:37;0.98;;;0.40;;
8036;SDS011;4061;51.360;7.340;2022-10-16T14:01:05;0.98;;;0.60;;
8036;SDS011;4061;51.360;7.340;2022-10-16T14:03:32;1.75;;;0.20;;
8036;SDS011;4061;51.360;7.340;2022-10-16T14:06:01;0.90;;;0.45;;
8036;SDS011;4061;51.360;7.340;2022-10-16T14:08:30;1.33;;;0.17;;
8036;SDS011;4061;51.360;7.340;2022-10-16T14:10:58;0.40;;;0.05;;
8036;SDS011;4061;51.360;7.340;2022-10-16T14:13:29;0.20;;;0.20;;
8036;SDS011;4061;51.360;7.340;2022-10-16T14:15:57;0.77;;;0.30;;
8036;SDS011;4061;51.360;7.340;2022-10-16T14:18:26;0.30;;;0.30;;
8036;SDS011;4061;51.360;7.340;2022-10-16T14:20:54;0.55;;;0.17;;
8036;SDS011;4061;51.360;7.340;2022-10-16T14:23:22;1.85;;;0.30;;
8036;SDS011;4061;51.360;7.340;2022-10-16T14:25:52;0.40;;;0.20;;
8036;SDS011;4061;51.360;7.340;2022-10-16T14:28:20;0.20;;;0.20;;
8036;SDS011;4061;51.360;7.340;2022-10-16T14:30:52;1.98;;;0.10;;
8036;SDS011;4061;51.360;7.340;2022-10-16T14:33:21;0.40;;;0.10;;
8036;SDS011;4061;51.360;7.340;2022-10-16T14:35:57;0.30;;;0.10;;
8036;SDS011;4061;51.360;7.340;2022-10-16T14:38:25;2.30;;;0.32;;
8036;SDS011;4061;51.360;7.340;2022-10-16T14:40:54;0.50;;;0.45;;
8036;SDS011;4061;51.360;7.340;2022-10-16T14:43:26;2.88;;;0.30;;
8036;SDS011;4061;51.360;7.340;2022-10-16T14:45:56;1.95;;;0.35;;
8036;SDS011;4061;51.360;7.340;2022-10-16T14:48:23;1.30;;;0.40;;
8036;SDS011;4061;51.360;7.340;2022-10-16T14:50:51;5.95;;;0.40;;
8036;SDS011;4061;51.360;7.340;2022-10-16T14:53:18;3.97;;;0.32;;
8036;SDS011;4061;51.360;7.340;2022-10-16T14:55:45;0.20;;;0.20;;
8036;SDS011;4061;51.360;7.340;2022-10-16T14:58:15;1.55;;;0.45;;
8036;SDS011;4061;51.360;7.340;2022-10-16T15:00:43;0.20;;;0.20;;
8036;SDS011;4061;51.360;7.340;2022-10-16T15:03:10;2.50;;;0.43;;
8036;SDS011;4061;51.360;7.340;2022-10-16T15:05:37;0.20;;;0.20;;
8036;SDS011;4061;51.360;7.340;2022-10-16T15:08:04;0.73;;;0.20;;
8036;SDS011;4061;51.360;7.340;2022-10-16T15:10:33;0.20;;;0.20;;
8036;SDS011;4061;51.360;7.340;2022-10-16T15:13:00;0.57;;;0.30;;
8036;SDS011;4061;51.360;7.340;2022-10-16T15:15:32;0.20;;;0.20;;
8036;SDS011;4061;51.360;7.340;2022-10-16T15:18:00;0.20;;;0.20;;
8036;SDS011;4061;51.360;7.340;2022-10-16T15:20:28;0.20;;;0.17;;
8036;SDS011;4061;51.360;7.340;2022-10-16T15:22:56;0.43;;;0.20;;
8036;SDS011;4061;51.360;7.340;2022-10-16T15:25:29;1.30;;;0.22;;
8036;SDS011;4061;51.360;7.340;2022-10-16T15:27:57;4.57;;;0.50;;